sensor_id;sensor_type;location;lat;lon;timestamp;P1;durP1;ratioP1;P2;durP2;ratioP2
37881;SDS011;23724;45.572;12.064;2022-12-13T00:00:47;10.25;;;7.50;;
37881;SDS011;23724;45.572;12.064;2022-12-13T00:05:51;10.80;;;7.32;;
37881;SDS011;23724;45.572;12.064;2022-12-13T00:10:59;11.05;;;7.43;;
37881;SDS011;23724;45.572;12.064;2022-12-13T00:16:05;11.05;;;7.00;;
37881;SDS011;23724;45.572;12.064;2022-12-13T00:21:12;13.75;;;8.07;;
37881;SDS011;23724;45.572;12.064;2022-12-13T00:26:19;8.27;;;7.07;;
37881;SDS011;23724;45.572;12.064;2022-12-13T00:31:26;8.80;;;6.15;;
37881;SDS011;23724;45.572;12.064;2022-12-13T00:36:49;9.55;;;5.95;;
37881;SDS011;23724;45.572;12.064;2022-12-13T00:41:55;9.02;;;6.30;;
37881;SDS011;23724;45.572;12.064;2022-12-13T00:47:00;8.90;;;6.05;;
37881;SDS011;23724;45.572;12.064;2022-12-13T00:52:04;11.10;;;6.07;;
37881;SDS011;23724;45.572;12.064;2022-12-13T00:57:10;7.97;;;5.15;;
37881;SDS011;23724;45.572;12.064;2022-12-13T01:02:13;10.32;;;6.90;;
37881;SDS011;23724;45.572;12.064;2022-12-13T01:07:17;10.00;;;5.88;;
37881;SDS011;23724;45.572;12.064;2022-12-13T01:12:22;8.45;;;5.32;;
37881;SDS011;23724;45.572;12.064;2022-12-13T01:17:26;8.13;;;5.35;;
37881;SDS011;23724;45.572;12.064;2022-12-13T01:22:29;8.77;;;5.63;;
37881;SDS011;23724;45.572;12.064;2022-12-13T01:27:33;7.53;;;4.80;;
37881;SDS011;23724;45.572;12.064;2022-12-13T01:32:37;5.95;;;4.45;;
37881;SDS011;23724;45.572;12.064;2022-12-13T01:37:42;8.40;;;5.18;;
37881;SDS011;23724;45.572;12.064;2022-12-13T01:42:46;7.15;;;4.75;;
37881;SDS011;23724;45.572;12.064;2022-12-13T01:47:55;7.53;;;5.50;;
37881;SDS011;23724;45.572;12.064;2022-12-13T01:53:04;8.52;;;5.25;;
37881;SDS011;23724;45.572;12.064;2022-12-13T01:58:10;6.07;;;4.38;;
37881;SDS011;23724;45.572;12.064;2022-12-13T02:03:15;5.18;;;3.55;;
37881;SDS011;23724;45.572;12.064;2022-12-13T02:08:23;6.75;;;4.88;;
37881;SDS011;23724;45.572;12.064;2022-12-13T02:13:28;7.30;;;4.50;;
37881;SDS011;23724;45.572;12.064;2022-12-13T02:34:55;6.72;;;4.38;;
37881;SDS011;23724;45.572;12.064;2022-12-13T02:40:15;6.80;;;4.45;;
37881;SDS011;23724;45.572;12.064;2022-12-13T02:45:30;5.55;;;4.10;;
37881;SDS011;23724;45.572;12.064;2022-12-13T02:50:53;5.15;;;4.25;;
37881;SDS011;23724;45.572;12.064;2022-12-13T02:55:59;8.18;;;5.32;;
37881;SDS011;23724;45.572;12.064;2022-12-13T03:12:33;5.00;;;3.90;;
37881;SDS011;23724;45.572;12.064;2022-12-13T03:18:06;6.15;;;4.28;;
37881;SDS011;23724;45.572;12.064;2022-12-13T03:23:22;6.40;;;4.95;;
37881;SDS011;23724;45.572;12.064;2022-12-13T03:28:27;7.05;;;5.00;;
37881;SDS011;23724;45.572;12.064;2022-12-13T03:33:30;7.53;;;5.00;;
37881;SDS011;23724;45.572;12.064;2022-12-13T03:38:35;6.35;;;4.65;;
37881;SDS011;23724;45.572;12.064;2022-12-13T03:43:39;8.50;;;4.57;;
37881;SDS011;23724;45.572;12.064;2022-12-13T03:48:44;6.25;;;4.20;;
37881;SDS011;23724;45.572;12.064;2022-12-13T03:53:49;6.28;;;4.25;;
37881;SDS011;23724;45.572;12.064;2022-12-13T03:58:53;6.28;;;4.25;;
37881;SDS011;23724;45.572;12.064;2022-12-13T04:03:57;7.47;;;4.10;;
37881;SDS011;23724;45.572;12.064;2022-12-13T04:09:00;8.80;;;5.55;;
37881;SDS011;23724;45.572;12.064;2022-12-13T04:14:04;5.18;;;3.67;;
37881;SDS011;23724;45.572;12.064;2022-12-13T04:19:08;5.72;;;3.83;;
37881;SDS011;23724;45.572;12.064;2022-12-13T04:24:12;5.25;;;3.85;;
37881;SDS011;23724;45.572;12.064;2022-12-13T04:29:17;6.25;;;3.70;;
37881;SDS011;23724;45.572;12.064;2022-12-13T04:34:20;4.95;;;3.42;;
37881;SDS011;23724;45.572;12.064;2022-12-13T04:39:27;3.47;;;2.83;;
37881;SDS011;23724;45.572;12.064;2022-12-13T04:44:36;5.70;;;4.00;;
37881;SDS011;23724;45.572;12.064;2022-12-13T04:49:48;5.80;;;3.80;;
37881;SDS011;23724;45.572;12.064;2022-12-13T04:54:53;4.68;;;3.28;;
37881;SDS011;23724;45.572;12.064;2022-12-13T04:59:57;5.18;;;3.60;;
37881;SDS011;23724;45.572;12.064;2022-12-13T05:05:01;4.88;;;3.53;;
37881;SDS011;23724;45.572;12.064;2022-12-13T05:10:05;6.38;;;4.13;;
37881;SDS011;23724;45.572;12.064;2022-12-13T05:15:10;5.60;;;3.67;;
37881;SDS011;23724;45.572;12.064;2022-12-13T05:20:14;5.28;;;3.63;;
37881;SDS011;23724;45.572;12.064;2022-12-13T05:25:19;6.35;;;3.65;;
37881;SDS011;23724;45.572;12.064;2022-12-13T05:30:23;6.20;;;4.25;;
37881;SDS011;23724;45.572;12.064;2022-12-13T05:35:27;4.20;;;3.42;;
37881;SDS011;23724;45.572;12.064;2022-12-13T05:40:31;3.88;;;3.45;;
37881;SDS011;23724;45.572;12.064;2022-12-13T05:45:36;5.00;;;3.30;;
37881;SDS011;23724;45.572;12.064;2022-12-13T05:50:40;4.15;;;3.03;;
37881;SDS011;23724;45.572;12.064;2022-12-13T05:55:44;5.38;;;3.80;;
37881;SDS011;23724;45.572;12.064;2022-12-13T06:00:50;5.38;;;3.55;;
37881;SDS011;23724;45.572;12.064;2022-12-13T06:05:54;6.07;;;4.25;;
37881;SDS011;23724;45.572;12.064;2022-12-13T06:10:59;8.82;;;4.45;;
37881;SDS011;23724;45.572;12.064;2022-12-13T06:16:14;5.90;;;4.10;;
37881;SDS011;23724;45.572;12.064;2022-12-13T06:21:27;5.57;;;4.03;;
37881;SDS011;23724;45.572;12.064;2022-12-13T06:26:49;6.32;;;4.13;;
37881;SDS011;23724;45.572;12.064;2022-12-13T06:31:54;4.55;;;4.00;;
37881;SDS011;23724;45.572;12.064;2022-12-13T06:37:05;6.25;;;4.25;;
37881;SDS011;23724;45.572;12.064;2022-12-13T06:42:15;5.93;;;4.10;;
37881;SDS011;23724;45.572;12.064;2022-12-13T06:47:26;5.53;;;3.45;;
37881;SDS011;23724;45.572;12.064;2022-12-13T06:52:34;6.68;;;4.07;;
37881;SDS011;23724;45.572;12.064;2022-12-13T06:57:39;5.38;;;4.07;;
37881;SDS011;23724;45.572;12.064;2022-12-13T07:02:44;7.10;;;3.58;;
37881;SDS011;23724;45.572;12.064;2022-12-13T07:07:55;6.63;;;3.85;;
37881;SDS011;23724;45.572;12.064;2022-12-13T07:12:58;4.93;;;3.22;;
37881;SDS011;23724;45.572;12.064;2022-12-13T07:18:03;5.43;;;3.65;;
37881;SDS011;23724;45.572;12.064;2022-12-13T07:23:07;5.85;;;3.17;;
37881;SDS011;23724;45.572;12.064;2022-12-13T07:28:11;4.63;;;3.03;;
37881;SDS011;23724;45.572;12.064;2022-12-13T07:33:16;5.15;;;2.90;;
37881;SDS011;23724;45.572;12.064;2022-12-13T07:38:24;4.72;;;3.22;;
37881;SDS011;23724;45.572;12.064;2022-12-13T07:43:29;3.95;;;2.60;;
37881;SDS011;23724;45.572;12.064;2022-12-13T07:48:34;5.38;;;2.70;;
37881;SDS011;23724;45.572;12.064;2022-12-13T07:53:39;3.95;;;2.90;;
37881;SDS011;23724;45.572;12.064;2022-12-13T07:58:43;5.43;;;2.70;;
37881;SDS011;23724;45.572;12.064;2022-12-13T08:03:50;5.05;;;3.15;;
37881;SDS011;23724;45.572;12.064;2022-12-13T08:08:55;2.75;;;2.28;;
37881;SDS011;23724;45.572;12.064;2022-12-13T08:14:00;4.07;;;2.60;;
37881;SDS011;23724;45.572;12.064;2022-12-13T08:19:05;4.88;;;2.70;;
37881;SDS011;23724;45.572;12.064;2022-12-13T08:24:09;3.50;;;1.92;;
37881;SDS011;23724;45.572;12.064;2022-12-13T08:29:18;2.85;;;2.25;;
37881;SDS011;23724;45.572;12.064;2022-12-13T08:34:35;7.40;;;2.50;;
37881;SDS011;23724;45.572;12.064;2022-12-13T08:39:40;3.90;;;2.35;;
37881;SDS011;23724;45.572;12.064;2022-12-13T08:44:48;4.40;;;2.80;;
37881;SDS011;23724;45.572;12.064;2022-12-13T08:49:57;5.97;;;2.33;;
37881;SDS011;23724;45.572;12.064;2022-12-13T08:55:08;3.80;;;2.35;;
37881;SDS011;23724;45.572;12.064;2022-12-13T09:00:13;5.88;;;3.03;;
37881;SDS011;23724;45.572;12.064;2022-12-13T09:05:20;4.75;;;2.92;;
37881;SDS011;23724;45.572;12.064;2022-12-13T09:10:36;2.90;;;2.20;;
37881;SDS011;23724;45.572;12.064;2022-12-13T09:15:41;5.25;;;2.78;;
37881;SDS011;23724;45.572;12.064;2022-12-13T09:20:47;3.45;;;2.17;;
37881;SDS011;23724;45.572;12.064;2022-12-13T09:25:52;4.80;;;2.22;;
37881;SDS011;23724;45.572;12.064;2022-12-13T09:31:12;5.72;;;2.65;;
37881;SDS011;23724;45.572;12.064;2022-12-13T09:36:19;4.45;;;2.47;;
37881;SDS011;23724;45.572;12.064;2022-12-13T09:46:36;3.47;;;2.40;;
37881;SDS011;23724;45.572;12.064;2022-12-13T09:51:48;3.08;;;2.28;;
37881;SDS011;23724;45.572;12.064;2022-12-13T09:57:18;6.20;;;2.80;;
37881;SDS011;23724;45.572;12.064;2022-12-13T10:02:40;3.10;;;2.42;;
37881;SDS011;23724;45.572;12.064;2022-12-13T10:07:47;4.38;;;2.50;;
37881;SDS011;23724;45.572;12.064;2022-12-13T10:12:55;5.22;;;2.33;;
37881;SDS011;23724;45.572;12.064;2022-12-13T10:18:32;8.82;;;2.22;;
37881;SDS011;23724;45.572;12.064;2022-12-13T10:23:37;6.13;;;4.15;;
37881;SDS011;23724;45.572;12.064;2022-12-13T10:29:02;3.22;;;2.33;;
37881;SDS011;23724;45.572;12.064;2022-12-13T10:34:19;4.28;;;2.30;;
37881;SDS011;23724;45.572;12.064;2022-12-13T10:39:40;2.38;;;1.92;;
37881;SDS011;23724;45.572;12.064;2022-12-13T10:44:45;2.03;;;1.70;;
37881;SDS011;23724;45.572;12.064;2022-12-13T10:49:52;2.40;;;1.58;;
37881;SDS011;23724;45.572;12.064;2022-12-13T10:55:02;2.97;;;1.90;;
37881;SDS011;23724;45.572;12.064;2022-12-13T11:00:33;2.90;;;2.13;;
37881;SDS011;23724;45.572;12.064;2022-12-13T11:05:40;2.88;;;1.63;;
37881;SDS011;23724;45.572;12.064;2022-12-13T11:10:58;2.65;;;1.75;;
37881;SDS011;23724;45.572;12.064;2022-12-13T11:16:23;3.60;;;2.60;;
37881;SDS011;23724;45.572;12.064;2022-12-13T11:21:31;3.65;;;2.10;;
37881;SDS011;23724;45.572;12.064;2022-12-13T11:26:39;11.32;;;5.15;;
37881;SDS011;23724;45.572;12.064;2022-12-13T11:37:31;4.97;;;3.05;;
37881;SDS011;23724;45.572;12.064;2022-12-13T11:42:42;4.38;;;2.65;;
37881;SDS011;23724;45.572;12.064;2022-12-13T11:53:34;5.68;;;2.90;;
37881;SDS011;23724;45.572;12.064;2022-12-13T12:04:27;6.47;;;3.25;;
37881;SDS011;23724;45.572;12.064;2022-12-13T12:15:19;5.32;;;2.90;;
37881;SDS011;23724;45.572;12.064;2022-12-13T12:26:09;3.45;;;2.30;;
37881;SDS011;23724;45.572;12.064;2022-12-13T13:04:43;4.90;;;3.33;;
37881;SDS011;23724;45.572;12.064;2022-12-13T13:09:59;10.20;;;4.68;;
37881;SDS011;23724;45.572;12.064;2022-12-13T13:20:39;5.45;;;3.75;;
37881;SDS011;23724;45.572;12.064;2022-12-13T13:25:52;5.97;;;3.50;;
37881;SDS011;23724;45.572;12.064;2022-12-13T13:52:24;6.65;;;4.50;;
37881;SDS011;23724;45.572;12.064;2022-12-13T14:08:59;5.97;;;3.50;;
37881;SDS011;23724;45.572;12.064;2022-12-13T14:20:16;7.18;;;4.57;;
37881;SDS011;23724;45.572;12.064;2022-12-13T14:36:29;4.80;;;2.65;;
37881;SDS011;23724;45.572;12.064;2022-12-13T14:41:44;5.68;;;3.03;;
37881;SDS011;23724;45.572;12.064;2022-12-13T14:46:53;7.30;;;3.33;;
37881;SDS011;23724;45.572;12.064;2022-12-13T14:57:31;6.15;;;3.53;;
37881;SDS011;23724;45.572;12.064;2022-12-13T15:02:48;7.47;;;5.10;;
37881;SDS011;23724;45.572;12.064;2022-12-13T15:07:53;6.47;;;3.47;;
37881;SDS011;23724;45.572;12.064;2022-12-13T15:12:59;6.30;;;3.80;;
37881;SDS011;23724;45.572;12.064;2022-12-13T15:18:04;7.53;;;5.03;;
37881;SDS011;23724;45.572;12.064;2022-12-13T15:23:34;6.78;;;4.47;;
37881;SDS011;23724;45.572;12.064;2022-12-13T15:29:03;4.53;;;3.35;;
37881;SDS011;23724;45.572;12.064;2022-12-13T15:34:22;5.97;;;3.33;;
37881;SDS011;23724;45.572;12.064;2022-12-13T15:39:38;5.50;;;3.40;;
37881;SDS011;23724;45.572;12.064;2022-12-13T15:44:54;7.57;;;5.07;;
37881;SDS011;23724;45.572;12.064;2022-12-13T16:00:28;10.10;;;4.82;;
37881;SDS011;23724;45.572;12.064;2022-12-13T16:05:34;8.68;;;5.72;;
37881;SDS011;23724;45.572;12.064;2022-12-13T16:10:45;12.32;;;7.95;;
37881;SDS011;23724;45.572;12.064;2022-12-13T16:15:53;13.40;;;7.20;;
37881;SDS011;23724;45.572;12.064;2022-12-13T16:21:10;9.57;;;6.30;;
37881;SDS011;23724;45.572;12.064;2022-12-13T16:26:22;8.10;;;5.18;;
37881;SDS011;23724;45.572;12.064;2022-12-13T16:31:29;10.48;;;7.30;;
37881;SDS011;23724;45.572;12.064;2022-12-13T16:36:38;8.27;;;5.80;;
37881;SDS011;23724;45.572;12.064;2022-12-13T16:41:43;7.72;;;5.68;;
37881;SDS011;23724;45.572;12.064;2022-12-13T16:46:50;11.18;;;6.50;;
37881;SDS011;23724;45.572;12.064;2022-12-13T16:52:14;9.93;;;6.60;;
37881;SDS011;23724;45.572;12.064;2022-12-13T16:57:19;10.07;;;5.80;;
37881;SDS011;23724;45.572;12.064;2022-12-13T17:02:23;9.05;;;5.63;;
37881;SDS011;23724;45.572;12.064;2022-12-13T17:07:27;9.07;;;6.10;;
37881;SDS011;23724;45.572;12.064;2022-12-13T17:12:31;9.90;;;6.55;;
37881;SDS011;23724;45.572;12.064;2022-12-13T17:17:36;8.38;;;5.10;;
37881;SDS011;23724;45.572;12.064;2022-12-13T17:22:44;15.23;;;7.47;;
37881;SDS011;23724;45.572;12.064;2022-12-13T17:27:48;18.15;;;11.65;;
37881;SDS011;23724;45.572;12.064;2022-12-13T17:32:52;10.35;;;7.97;;
37881;SDS011;23724;45.572;12.064;2022-12-13T17:38:00;10.80;;;6.82;;
37881;SDS011;23724;45.572;12.064;2022-12-13T17:43:05;12.27;;;7.78;;
37881;SDS011;23724;45.572;12.064;2022-12-13T17:48:16;9.02;;;6.07;;
